Time;durP1;ratioP1;P1;durP2;ratioP2;P2;SDS_P1;SDS_P2;PMS_P1;PMS_P2;Temp;Humidity;BMP_temperature;BMP_pressure;BME280_temperature;BME280_humidity;BME280_pressure;Samples;Min_cycle;Max_cycle;Signal;HPM_P1;HPM_P2
2022/01/20 00:00:45;;;;;;;10.58;7.10;;;;;;;1.11;71.98;96347.34;1695477;84;21059;-81
2022/01/20 00:03:19;;;;;;;7.85;6.42;;;;;;;1.10;71.92;96341.06;1700548;83;21034;-80
2022/01/20 00:27:37;;;;;;;10.08;7.20;;;;;;;1.01;73.78;96305.53;1696737;83;21307;-81
2022/01/20 00:30:26;;;;;;;9.40;7.97;;;;;;;1.02;73.57;96316.58;1696477;84;21055;-81
2022/01/20 00:35:21;;;;;;;8.88;6.95;;;;;;;1.04;73.84;96321.10;1696683;83;21104;-80
2022/01/20 00:37:44;;;;;;;9.18;7.55;;;;;;;1.05;74.03;96318.88;1674474;84;21355;-80
2022/01/20 00:40:10;;;;;;;9.05;8.13;;;;;;;1.05;74.14;96322.25;1696554;84;21000;-80
2022/01/20 00:42:36;;;;;;;11.28;8.23;;;;;;;1.06;74.32;96316.20;1697120;83;21323;-80
2022/01/20 00:45:02;;;;;;;12.55;8.38;;;;;;;1.07;74.19;96316.54;1696695;84;20999;-80
2022/01/20 00:47:29;;;;;;;9.73;7.65;;;;;;;1.08;74.16;96312.23;1697109;83;21361;-80
2022/01/20 00:49:54;;;;;;;10.45;8.35;;;;;;;1.09;74.12;96302.34;1696494;84;20996;-80
2022/01/20 00:52:20;;;;;;;13.75;7.87;;;;;;;1.11;74.01;96303.83;1696820;84;21350;-81
2022/01/20 00:54:46;;;;;;;11.70;8.70;;;;;;;1.15;74.02;96305.23;1696708;84;20991;-81
2022/01/20 00:57:12;;;;;;;12.07;8.35;;;;;;;1.17;74.04;96291.83;1705957;82;20988;-81
2022/01/20 00:59:38;;;;;;;9.53;7.83;;;;;;;1.19;73.99;96297.63;1696528;84;21046;-80
2022/01/20 01:02:08;;;;;;;9.03;7.10;;;;;;;1.22;73.99;96299.13;1696990;83;21003;-80
2022/01/20 01:04:34;;;;;;;10.40;8.25;;;;;;;1.26;74.02;96285.12;1696771;84;20964;-80
2022/01/20 01:09:28;;;;;;;10.23;8.40;;;;;;;1.30;73.95;96266.48;1696763;84;21386;-80
2022/01/20 01:11:59;;;;;;;8.98;7.35;;;;;;;1.32;73.84;96263.35;1675137;84;21016;-80
2022/01/20 01:14:23;;;;;;;10.18;6.67;;;;;;;1.33;73.82;96253.45;1696065;82;20992;-80
2022/01/20 01:24:43;;;;;;;8.68;7.45;;;;;;;1.36;74.23;96232.24;1686739;85;21032;-80
2022/01/20 01:27:10;;;;;;;6.25;5.33;;;;;;;1.37;73.93;96232.58;1688241;85;20988;-80
2022/01/20 01:32:04;;;;;;;6.87;5.90;;;;;;;1.40;73.88;96218.23;1689024;85;21011;-81
2022/01/20 01:34:31;;;;;;;8.68;7.17;;;;;;;1.41;73.94;96203.69;1688617;85;21390;-80
2022/01/20 01:39:25;;;;;;;8.13;6.45;;;;;;;1.43;73.93;96197.48;1688691;85;20972;-80
2022/01/20 01:41:51;;;;;;;6.47;5.78;;;;;;;1.44;73.84;96198.30;1689099;85;21056;-80
2022/01/20 01:44:23;;;;;;;6.55;5.65;;;;;;;1.45;74.08;96185.84;1688936;85;20979;-80
2022/01/20 01:46:44;;;;;;;7.37;5.75;;;;;;;1.45;73.65;96189.20;1688133;85;21375;-80
2022/01/20 01:49:10;;;;;;;6.45;5.72;;;;;;;1.48;73.23;96172.33;1685155;83;21008;-81
2022/01/20 01:51:36;;;;;;;7.28;6.17;;;;;;;1.51;73.46;96171.25;1675240;85;20981;-80
2022/01/20 01:54:02;;;;;;;7.95;6.03;;;;;;;1.53;73.30;96159.13;1688984;85;21356;-80
2022/01/20 01:56:27;;;;;;;7.50;5.37;;;;;;;1.54;72.95;96181.70;1688974;85;21410;-80
2022/01/20 01:58:54;;;;;;;5.75;5.15;;;;;;;1.57;72.94;96157.91;1688687;85;21028;-80
2022/01/20 02:01:20;;;;;;;6.97;4.95;;;;;;;1.60;72.65;96179.41;1688980;85;21036;-80
2022/01/20 02:03:56;;;;;;;5.50;4.92;;;;;;;1.61;72.99;96174.63;1688460;85;20976;-80
2022/01/20 02:19:54;;;;;;;6.45;4.03;;;;;;;1.74;71.27;96150.06;1688585;85;21040;-80
2022/01/20 02:22:16;;;;;;;5.17;3.87;;;;;;;1.78;71.10;96150.93;1709299;83;20991;-80
2022/01/20 02:24:42;;;;;;;4.17;3.77;;;;;;;1.81;71.08;96137.07;1709770;84;21330;-80
2022/01/20 02:27:08;;;;;;;4.08;3.30;;;;;;;1.82;70.97;96121.23;1710036;84;20999;-80
2022/01/20 02:29:34;;;;;;;4.40;3.47;;;;;;;1.84;70.68;96127.02;1709696;83;21469;-80
2022/01/20 02:32:00;;;;;;;3.90;3.55;;;;;;;1.85;70.73;96146.58;1709689;84;20974;-80
2022/01/20 02:34:29;;;;;;;4.60;3.40;;;;;;;1.89;70.65;96147.92;1709662;84;20946;-80
2022/01/20 02:36:56;;;;;;;4.10;3.20;;;;;;;1.90;70.47;96147.78;1709773;84;21042;-80
2022/01/20 02:39:42;;;;;;;4.70;3.52;;;;;;;1.92;70.63;96127.15;1709796;84;21042;-81
2022/01/20 02:47:17;;;;;;;5.35;3.42;;;;;;;1.93;70.86;96137.73;1660869;85;21059;-80
2022/01/20 02:49:43;;;;;;;4.22;3.80;;;;;;;1.93;71.10;96130.05;1690379;84;21412;-80
2022/01/20 02:52:09;;;;;;;5.17;4.03;;;;;;;1.92;71.37;96135.64;1685705;84;20986;-81
2022/01/20 02:54:34;;;;;;;4.33;3.83;;;;;;;1.91;71.32;96127.63;1709826;83;21041;-80
2022/01/20 02:57:01;;;;;;;5.67;3.83;;;;;;;1.92;71.45;96116.90;1709657;83;21085;-80
2022/01/20 02:59:28;;;;;;;6.55;4.62;;;;;;;1.91;71.46;96124.25;1709612;84;20997;-80
2022/01/20 03:01:53;;;;;;;5.37;4.15;;;;;;;1.90;71.50;96119.59;1709496;84;21405;-81
2022/01/20 03:04:24;;;;;;;5.62;4.50;;;;;;;1.89;71.56;96121.83;1709378;84;20986;-80
2022/01/20 03:06:47;;;;;;;5.92;4.20;;;;;;;1.91;71.70;96125.53;1709329;84;20963;-80
2022/01/20 03:09:12;;;;;;;4.47;3.87;;;;;;;1.91;71.82;96134.50;1709823;84;21002;-80
2022/01/20 03:11:39;;;;;;;4.58;3.92;;;;;;;1.88;71.98;96116.36;1709653;83;21054;-80
2022/01/20 03:14:04;;;;;;;4.97;4.28;;;;;;;1.88;71.92;96120.68;1709535;83;21333;-80
2022/01/20 03:16:30;;;;;;;5.55;3.83;;;;;;;1.87;72.04;96125.00;1689413;84;20966;-80
2022/01/20 03:18:56;;;;;;;5.45;4.25;;;;;;;1.88;72.28;96125.33;1709689;83;21405;-80
2022/01/20 03:21:22;;;;;;;6.58;4.75;;;;;;;1.87;72.35;96115.22;1702821;83;21090;-80
2022/01/20 03:23:48;;;;;;;5.25;4.40;;;;;;;1.85;72.37;96119.67;1696892;82;20961;-81
2022/01/20 03:26:13;;;;;;;5.45;4.58;;;;;;;1.85;72.68;96101.27;1696794;83;21487;-80
2022/01/20 03:28:39;;;;;;;6.25;4.47;;;;;;;1.85;72.63;96104.30;1696887;84;21110;-81
2022/01/20 03:31:05;;;;;;;6.40;5.05;;;;;;;1.85;72.51;96108.14;1696877;84;21039;-80
2022/01/20 03:33:31;;;;;;;6.30;4.72;;;;;;;1.85;72.69;96100.46;1696673;84;21086;-80
2022/01/20 03:35:56;;;;;;;5.03;4.37;;;;;;;1.85;72.82;96098.70;1696691;84;20980;-81
2022/01/20 03:38:22;;;;;;;6.62;4.45;;;;;;;1.83;72.80;96101.88;1696729;84;21003;-81
2022/01/20 03:40:49;;;;;;;5.05;4.50;;;;;;;1.83;73.08;96101.88;1696758;82;21075;-81
2022/01/20 03:43:15;;;;;;;4.87;4.05;;;;;;;1.82;73.16;96096.42;1696808;84;21366;-81
2022/01/20 03:45:42;;;;;;;5.97;4.60;;;;;;;1.82;73.30;96090.02;1696852;83;21006;-80
2022/01/20 03:48:11;;;;;;;5.55;4.53;;;;;;;1.82;73.28;96090.48;1696785;84;21006;-81
2022/01/20 03:53:20;;;;;;;6.47;4.22;;;;;;;1.83;73.28;96083.14;1686861;84;21032;-80
2022/01/20 03:55:46;;;;;;;4.87;4.25;;;;;;;1.82;73.21;96080.24;1697135;82;20976;-80
2022/01/20 03:58:12;;;;;;;5.65;4.62;;;;;;;1.83;73.42;96083.14;1697048;82;20980;-80
2022/01/20 04:00:37;;;;;;;5.87;4.72;;;;;;;1.83;73.46;96078.02;1696660;84;21059;-81
2022/01/20 04:03:03;;;;;;;4.30;3.40;;;;;;;1.82;73.58;96072.55;1675371;84;21457;-81
2022/01/20 04:05:29;;;;;;;5.62;4.53;;;;;;;1.81;73.62;96070.47;1696913;84;20999;-80
2022/01/20 04:07:55;;;;;;;6.78;5.10;;;;;;;1.82;73.71;96069.99;1696896;84;21429;-81
2022/01/20 04:10:21;;;;;;;7.15;5.85;;;;;;;1.82;74.13;96059.27;1696775;84;21383;-81
2022/01/20 04:12:47;;;;;;;6.37;5.40;;;;;;;1.80;74.17;96063.25;1696652;85;21008;-80
2022/01/20 04:15:15;;;;;;;6.50;4.70;;;;;;;1.79;74.64;96055.70;1696904;83;21348;-81
2022/01/20 04:17:42;;;;;;;6.17;5.22;;;;;;;1.76;74.88;96052.92;1696787;82;21004;-81
2022/01/20 04:20:08;;;;;;;5.28;4.78;;;;;;;1.73;75.26;96064.72;1696878;84;21019;-80
2022/01/20 04:22:34;;;;;;;6.70;4.28;;;;;;;1.71;75.39;96064.52;1705331;83;21058;-80
2022/01/20 04:25:00;;;;;;;4.90;3.80;;;;;;;1.72;75.46;96062.30;1714553;83;20997;-81
2022/01/20 04:27:26;;;;;;;4.85;3.75;;;;;;;1.71;76.19;96060.68;1714743;83;20997;-80
2022/01/20 04:29:51;;;;;;;8.43;4.80;;;;;;;1.68;76.05;96054.55;1709094;84;20991;-80
2022/01/20 04:32:17;;;;;;;5.47;4.45;;;;;;;1.66;75.98;96036.76;1696591;84;21083;-81
2022/01/20 04:34:44;;;;;;;4.10;3.70;;;;;;;1.66;76.20;96044.91;1696536;83;21347;-80
2022/01/20 04:37:10;;;;;;;5.60;4.25;;;;;;;1.65;76.40;96047.14;1696661;84;20967;-81
2022/01/20 04:39:43;;;;;;;4.03;3.10;;;;;;;1.64;76.50;96034.81;1713088;82;21379;-80
2022/01/20 04:42:05;;;;;;;4.35;3.92;;;;;;;1.67;76.27;96040.94;1695986;84;21032;-81
2022/01/20 04:44:43;;;;;;;4.25;3.40;;;;;;;1.69;75.94;96031.36;1696442;84;21014;-81
2022/01/20 04:47:23;;;;;;;3.77;3.37;;;;;;;1.71;75.82;96030.75;1695720;84;20992;-80
2022/01/20 04:57:53;;;;;;;4.45;3.27;;;;;;;1.82;75.27;96000.83;1719412;83;21084;-81
2022/01/20 05:00:19;;;;;;;3.83;2.92;;;;;;;1.84;74.99;96008.70;1686622;85;21088;-82
2022/01/20 05:02:45;;;;;;;4.65;3.77;;;;;;;1.85;75.04;96012.88;1686902;84;21347;-81
2022/01/20 05:05:11;;;;;;;3.27;2.65;;;;;;;1.87;74.97;96012.74;1706674;83;21359;-80
2022/01/20 05:07:36;;;;;;;4.47;3.60;;;;;;;1.90;74.54;95998.38;1696704;84;21342;-81
2022/01/20 05:10:07;;;;;;;3.65;2.72;;;;;;;1.93;74.58;96004.02;1696899;84;21035;-81
2022/01/20 05:13:00;;;;;;;3.22;2.85;;;;;;;1.95;74.38;95998.31;1696594;82;21401;-81
2022/01/20 05:15:02;;;;;;;2.83;2.58;;;;;;;1.95;74.43;95997.47;1692728;84;21050;-80
2022/01/20 05:17:28;;;;;;;3.55;3.25;;;;;;;1.97;74.34;95986.64;1696790;85;20992;-81
2022/01/20 05:19:54;;;;;;;3.55;2.90;;;;;;;1.98;74.27;95996.75;1696887;83;21057;-81
2022/01/20 05:22:20;;;;;;;4.12;3.37;;;;;;;2.00;74.38;95999.17;1707334;83;21034;-80
2022/01/20 05:24:46;;;;;;;5.10;3.17;;;;;;;1.99;74.20;95988.12;1711809;83;20947;-81
2022/01/20 05:27:12;;;;;;;3.02;2.72;;;;;;;2.00;74.01;95990.20;1712684;84;20963;-81
2022/01/20 05:29:37;;;;;;;3.00;2.30;;;;;;;2.03;73.85;95978.39;1709648;84;21364;-80
2022/01/20 05:32:04;;;;;;;2.75;2.52;;;;;;;2.06;73.43;95972.51;1716971;83;21578;-80
2022/01/20 05:34:31;;;;;;;3.75;2.70;;;;;;;2.09;73.56;95994.01;1716870;83;20939;-81
2022/01/20 05:36:57;;;;;;;6.92;4.15;;;;;;;2.10;73.59;95996.09;1717043;83;21482;-80
2022/01/20 05:39:24;;;;;;;11.30;9.33;;;;;;;2.11;73.51;95981.05;1716915;83;21080;-81
2022/01/20 05:41:50;;;;;;;3.30;3.00;;;;;;;2.09;73.58;95976.06;1717267;83;21062;-81
2022/01/20 05:44:16;;;;;;;4.92;3.70;;;;;;;2.09;73.27;95997.05;1716823;84;21448;-81
2022/01/20 05:46:47;;;;;;;3.30;3.00;;;;;;;2.08;73.58;95982.62;1716952;83;21396;-80
2022/01/20 05:49:10;;;;;;;6.22;3.92;;;;;;;2.06;73.71;95987.08;1716426;82;21005;-81
2022/01/20 05:51:39;;;;;;;6.85;5.50;;;;;;;2.04;73.70;95979.53;1716922;84;20958;-81
2022/01/20 05:54:05;;;;;;;5.42;4.50;;;;;;;2.05;73.80;95988.83;1716839;84;21093;-81
2022/01/20 05:56:31;;;;;;;3.77;3.47;;;;;;;2.05;73.71;95993.95;1717162;84;21034;-80
2022/01/20 05:58:56;;;;;;;14.25;7.95;;;;;;;2.05;73.90;95995.23;1717084;83;21390;-81
2022/01/20 06:01:22;;;;;;;11.63;6.78;;;;;;;2.06;73.98;96002.45;1716995;83;21058;-81
2022/01/20 06:03:49;;;;;;;10.15;6.20;;;;;;;2.05;73.94;95979.86;1716782;84;21034;-81
2022/01/20 06:06:15;;;;;;;5.30;3.70;;;;;;;2.06;73.92;95980.67;1717426;84;20978;-81
2022/01/20 06:08:44;;;;;;;4.70;3.98;;;;;;;2.06;73.98;95992.20;1698084;83;21361;-81
2022/01/20 06:11:10;;;;;;;15.70;12.82;;;;;;;2.06;73.92;95964.02;1717184;83;21448;-81
2022/01/20 06:13:36;;;;;;;13.95;8.55;;;;;;;2.05;73.87;95966.24;1716847;83;20955;-81
2022/01/20 06:16:02;;;;;;;12.18;7.12;;;;;;;2.06;73.90;95975.55;1717053;83;21048;-81
2022/01/20 06:18:28;;;;;;;6.10;4.90;;;;;;;2.07;73.89;95963.06;1717276;83;20984;-81
2022/01/20 06:20:54;;;;;;;4.65;4.15;;;;;;;2.07;73.91;95963.88;1716726;83;20950;-81
2022/01/20 06:23:21;;;;;;;5.87;5.10;;;;;;;2.08;73.93;95971.89;1709616;84;20971;-81
2022/01/20 06:25:48;;;;;;;12.82;8.48;;;;;;;2.09;74.08;95981.67;1709298;84;21078;-81
2022/01/20 06:28:14;;;;;;;20.75;11.48;;;;;;;2.08;73.96;95978.77;1709449;84;21279;-81
2022/01/20 06:30:40;;;;;;;24.85;13.28;;;;;;;2.08;74.10;95971.08;1709392;84;21034;-81
2022/01/20 06:33:06;;;;;;;16.23;8.68;;;;;;;2.08;74.21;95992.39;1709480;83;20990;-81
2022/01/20 06:35:32;;;;;;;8.48;4.85;;;;;;;2.09;74.34;95989.36;1709499;84;21015;-81
2022/01/20 06:37:58;;;;;;;25.12;14.20;;;;;;;2.08;74.34;95964.20;1709610;83;21038;-81
2022/01/20 06:40:24;;;;;;;8.55;6.08;;;;;;;2.09;74.35;95966.29;1709500;84;21103;-81
2022/01/20 06:42:50;;;;;;;32.60;20.55;;;;;;;2.08;74.38;95951.39;1709273;84;21403;-81
2022/01/20 06:45:17;;;;;;;16.95;10.13;;;;;;;2.06;74.56;95948.63;1709559;84;20989;-80
2022/01/20 06:47:43;;;;;;;14.78;8.48;;;;;;;2.05;74.55;95938.05;1709516;84;20969;-81
2022/01/20 06:50:11;;;;;;;8.38;4.97;;;;;;;2.03;74.75;95945.08;1709340;84;20980;-80
2022/01/20 06:52:37;;;;;;;8.08;4.78;;;;;;;2.04;74.75;95937.25;1709429;83;21427;-81
2022/01/20 06:55:05;;;;;;;10.45;8.43;;;;;;;2.05;74.64;95922.67;1709287;84;21083;-81
2022/01/20 06:57:34;;;;;;;5.80;5.12;;;;;;;2.06;74.66;95917.88;1709344;84;21000;-80
2022/01/20 07:00:02;;;;;;;21.75;10.80;;;;;;;2.05;74.80;95920.92;1709308;84;21366;-81
2022/01/20 07:02:28;;;;;;;11.38;6.12;;;;;;;2.05;74.89;95935.49;1702709;82;21023;-81
2022/01/20 07:04:54;;;;;;;6.90;4.50;;;;;;;2.05;74.93;95936.77;1709591;84;21049;-81
2022/01/20 07:07:19;;;;;;;9.08;4.62;;;;;;;2.05;74.98;95939.33;1709488;83;20943;-81
2022/01/20 07:09:45;;;;;;;14.87;10.90;;;;;;;2.05;74.97;95931.64;1709478;83;21306;-81
2022/01/20 07:12:11;;;;;;;13.08;9.13;;;;;;;2.06;74.92;95923.01;1709421;84;20967;-81
2022/01/20 07:14:38;;;;;;;9.40;6.05;;;;;;;2.09;74.74;95947.07;1709530;84;20942;-81
2022/01/20 07:17:04;;;;;;;9.25;5.70;;;;;;;2.13;74.82;95971.50;1709297;83;20959;-81
2022/01/20 07:19:31;;;;;;;53.10;23.87;;;;;;;2.15;74.78;95954.70;1709371;83;20994;-81
2022/01/20 07:21:56;;;;;;;31.70;15.78;;;;;;;2.15;75.00;95956.78;1712386;83;21333;-81
2022/01/20 07:24:22;;;;;;;27.07;13.93;;;;;;;2.16;75.19;95951.18;1719467;83;20958;-81
2022/01/20 07:26:49;;;;;;;13.28;6.15;;;;;;;2.18;75.04;95961.63;1719239;83;20990;-81
2022/01/20 07:29:15;;;;;;;70.83;31.45;;;;;;;2.20;75.09;95946.91;1716108;83;20935;-81
2022/01/20 07:31:41;;;;;;;17.92;9.30;;;;;;;2.20;75.05;95952.03;1709179;84;20994;-82
2022/01/20 07:34:07;;;;;;;19.95;10.53;;;;;;;2.20;75.00;95944.34;1709805;84;20962;-81
2022/01/20 07:36:33;;;;;;;5.85;4.10;;;;;;;2.19;75.11;95957.30;1709643;84;21018;-81
2022/01/20 07:38:59;;;;;;;8.95;6.40;;;;;;;2.19;75.03;95952.17;1709756;84;21005;-81
2022/01/20 07:41:25;;;;;;;11.05;8.88;;;;;;;2.17;75.17;95960.01;1709716;84;21042;-81
2022/01/20 07:43:50;;;;;;;13.43;7.78;;;;;;;2.18;75.22;95954.41;1709917;83;20989;-81
2022/01/20 07:46:16;;;;;;;6.12;4.72;;;;;;;2.19;75.24;95962.42;1709795;83;21009;-81
2022/01/20 07:48:42;;;;;;;12.53;7.10;;;;;;;2.19;75.30;95963.23;1709785;83;20920;-79
2022/01/20 07:51:07;;;;;;;8.10;5.50;;;;;;;2.17;75.27;95965.14;1709998;83;20928;-80
2022/01/20 07:53:35;;;;;;;11.90;6.97;;;;;;;2.16;75.39;95964.80;1709951;84;21298;-80
2022/01/20 07:56:01;;;;;;;14.93;8.65;;;;;;;2.12;75.73;95973.73;1709952;84;20991;-80
2022/01/20 07:58:26;;;;;;;6.40;5.37;;;;;;;2.09;75.79;95971.42;1709966;83;21050;-80
2022/01/20 08:00:52;;;;;;;10.88;6.17;;;;;;;2.06;75.85;95986.60;1702297;82;21005;-79
2022/01/20 08:03:18;;;;;;;7.80;5.40;;;;;;;2.04;76.61;95983.84;1678085;85;21285;-79
2022/01/20 08:05:44;;;;;;;7.17;5.50;;;;;;;2.01;77.01;96000.79;1681615;85;20986;-80
2022/01/20 08:08:09;;;;;;;8.45;6.37;;;;;;;1.98;76.90;96011.32;1662054;85;20946;-80
2022/01/20 08:10:35;;;;;;;8.30;6.87;;;;;;;1.94;77.46;96006.92;1681533;85;21020;-80
2022/01/20 08:13:04;;;;;;;9.85;7.42;;;;;;;1.89;78.39;96001.88;1681523;85;20985;-79
2022/01/20 08:15:31;;;;;;;7.97;5.72;;;;;;;1.82;78.59;96020.04;1681275;85;21440;-80
2022/01/20 08:17:57;;;;;;;7.83;6.08;;;;;;;1.75;78.98;96030.81;1681560;85;21034;-80
2022/01/20 08:20:23;;;;;;;8.80;6.80;;;;;;;1.68;80.08;96028.94;1662024;85;21034;-80
2022/01/20 08:22:49;;;;;;;10.25;7.50;;;;;;;1.62;79.83;96024.34;1683388;85;20981;-80
2022/01/20 08:25:18;;;;;;;8.05;7.15;;;;;;;1.56;80.24;96025.70;1688731;85;21069;-80
2022/01/20 08:27:45;;;;;;;12.45;10.10;;;;;;;1.49;80.75;96016.48;1680235;85;21094;-80
2022/01/20 08:30:14;;;;;;;11.83;8.65;;;;;;;1.45;81.34;96028.38;1669201;86;21477;-80
2022/01/20 08:32:40;;;;;;;7.67;6.25;;;;;;;1.39;81.65;96023.80;1669098;85;21055;-81
2022/01/20 08:35:09;;;;;;;10.82;6.53;;;;;;;1.37;82.28;96011.14;1669057;86;21443;-80
2022/01/20 08:37:35;;;;;;;8.65;6.62;;;;;;;1.38;81.96;96018.34;1669276;86;21095;-79
2022/01/20 08:40:09;;;;;;;6.62;5.55;;;;;;;1.38;82.72;96014.03;1669079;86;21445;-80
2022/01/20 08:42:34;;;;;;;6.40;5.40;;;;;;;1.38;82.49;96001.70;1669139;86;20988;-80
2022/01/20 08:45:00;;;;;;;12.28;7.20;;;;;;;1.36;82.87;95992.89;1669041;85;21088;-80
2022/01/20 08:47:26;;;;;;;7.42;5.40;;;;;;;1.35;83.07;95993.83;1669268;85;21063;-80
2022/01/20 08:49:52;;;;;;;7.20;5.70;;;;;;;1.33;83.02;95985.95;1668942;85;21417;-80
2022/01/20 08:52:18;;;;;;;14.13;8.40;;;;;;;1.34;82.83;95985.01;1648138;86;20986;-80
2022/01/20 08:54:45;;;;;;;6.10;5.45;;;;;;;1.36;82.84;95977.53;1669000;86;21111;-79
2022/01/20 08:57:11;;;;;;;11.03;6.62;;;;;;;1.35;82.52;95975.91;1669229;86;21039;-80
2022/01/20 08:59:40;;;;;;;8.70;5.87;;;;;;;1.36;82.59;95981.84;1669094;86;20999;-80
2022/01/20 09:02:04;;;;;;;17.15;8.65;;;;;;;1.34;82.36;95979.89;1656532;84;21505;-80
2022/01/20 09:04:30;;;;;;;8.33;5.75;;;;;;;1.31;82.15;95984.81;1695501;84;20983;-80
2022/01/20 09:06:56;;;;;;;5.78;4.65;;;;;;;1.28;82.06;95962.49;1696982;83;21011;-80
2022/01/20 09:09:21;;;;;;;27.13;11.68;;;;;;;1.25;82.03;95939.26;1697223;83;21003;-80
2022/01/20 09:17:16;;;;;;;9.58;5.25;;;;;;;1.26;80.91;95928.08;1697244;83;21067;-80
2022/01/20 09:19:41;;;;;;;5.90;4.22;;;;;;;1.30;80.88;95937.56;1696976;83;21040;-79
2022/01/20 09:22:09;;;;;;;11.68;7.53;;;;;;;1.34;80.56;95939.74;1699520;83;21014;-79
2022/01/20 09:24:35;;;;;;;6.78;4.15;;;;;;;1.41;80.36;95952.80;1709621;83;20957;-80
2022/01/20 09:27:01;;;;;;;7.22;4.55;;;;;;;1.47;79.54;95945.87;1689637;84;20995;-80
2022/01/20 09:29:27;;;;;;;10.55;5.80;;;;;;;1.52;79.46;95944.17;1709743;84;21030;-80
2022/01/20 09:31:53;;;;;;;5.03;3.83;;;;;;;1.55;79.15;95963.09;1709489;83;21097;-80
2022/01/20 09:34:19;;;;;;;8.33;3.47;;;;;;;1.53;78.23;95961.15;1709626;84;21003;-80
2022/01/20 09:36:45;;;;;;;11.85;6.50;;;;;;;1.46;78.28;95957.86;1709691;84;21078;-80
2022/01/20 09:39:12;;;;;;;6.92;3.95;;;;;;;1.42;77.94;95937.30;1709612;83;21094;-79
2022/01/20 09:41:38;;;;;;;22.20;9.15;;;;;;;1.43;77.60;95912.03;1709684;83;21014;-80
2022/01/20 09:44:06;;;;;;;11.33;6.53;;;;;;;1.53;77.59;95911.22;1709967;84;20919;-80
2022/01/20 09:46:33;;;;;;;6.37;3.75;;;;;;;1.53;77.59;95911.22;1709746;83;21026;-80
2022/01/20 09:48:58;;;;;;;13.75;5.97;;;;;;;1.58;76.59;95897.05;1709849;83;21501;-80
2022/01/20 09:51:26;;;;;;;13.40;5.60;;;;;;;1.65;76.24;95898.13;1709728;84;21023;-79
2022/01/20 09:53:52;;;;;;;9.38;3.77;;;;;;;1.72;75.41;95922.70;1709809;84;21003;-80
2022/01/20 09:56:18;;;;;;;4.65;3.22;;;;;;;1.75;74.89;95918.10;1710030;84;21066;-80
2022/01/20 09:58:45;;;;;;;5.97;3.83;;;;;;;1.79;74.52;95910.50;1689717;84;20939;-80
2022/01/20 10:01:10;;;;;;;19.52;8.40;;;;;;;1.84;74.67;95916.95;1709841;83;21035;-80
2022/01/20 10:03:37;;;;;;;8.88;4.60;;;;;;;;;;1709740;83;21438;-80
2022/01/20 10:06:03;;;;;;;21.27;9.10;;;;;;;1.89;74.32;95904.52;1709820;84;20967;-80
2022/01/20 10:08:30;;;;;;;11.48;4.40;;;;;;;1.96;74.24;95904.31;1709739;84;20977;-80
2022/01/20 10:10:58;;;;;;;15.13;6.42;;;;;;;2.03;73.32;95900.23;1709648;83;21046;-80
2022/01/20 10:13:28;;;;;;;6.42;2.75;;;;;;;2.09;73.44;95891.49;1709524;83;20955;-80
2022/01/20 10:16:12;;;;;;;8.28;3.45;;;;;;;2.20;73.44;95898.68;1709719;84;20931;-80
2022/01/20 10:19:00;;;;;;;17.20;8.28;;;;;;;2.30;72.32;95871.25;1694838;84;21431;-79
2022/01/20 10:21:32;;;;;;;5.35;3.00;;;;;;;2.36;70.24;95857.38;1681086;85;21021;-80
2022/01/20 10:24:12;;;;;;;8.98;4.53;;;;;;;2.40;70.13;95872.80;1689523;85;21005;-80
2022/01/20 10:26:39;;;;;;;8.98;3.52;;;;;;;2.49;68.28;95849.34;1683891;85;20973;-80
2022/01/20 10:29:08;;;;;;;4.97;2.40;;;;;;;2.53;68.85;95835.75;1681570;85;21420;-80
2022/01/20 10:31:38;;;;;;;6.03;2.42;;;;;;;2.51;68.12;95820.51;1681440;85;21024;-80
2022/01/20 10:34:09;;;;;;;5.45;2.40;;;;;;;2.45;67.09;95831.84;1681763;85;20971;-80
2022/01/20 10:36:40;;;;;;;9.55;3.58;;;;;;;2.41;65.95;95828.25;1678821;85;20947;-80
2022/01/20 10:39:02;;;;;;;9.53;5.35;;;;;;;2.37;65.93;95844.08;1681029;85;20990;-80
2022/01/20 10:41:39;;;;;;;5.75;3.20;;;;;;;2.36;65.65;95833.02;1681551;85;20976;-80
2022/01/20 10:44:16;;;;;;;5.83;2.52;;;;;;;2.37;66.32;95844.08;1681565;85;20938;-80
2022/01/20 10:46:46;;;;;;;5.20;2.25;;;;;;;2.32;65.04;95852.20;1681653;85;20950;-80
2022/01/20 10:49:12;;;;;;;4.08;1.90;;;;;;;2.26;65.40;95832.26;1681621;85;20973;-80
2022/01/20 10:51:38;;;;;;;6.05;2.30;;;;;;;2.20;65.43;95833.31;1681791;85;21030;-79
2022/01/20 10:54:07;;;;;;;3.95;2.40;;;;;;;2.17;65.42;95821.60;1681578;85;20946;-80
2022/01/20 10:56:54;;;;;;;6.35;2.25;;;;;;;2.15;65.99;95808.13;1681526;85;20973;-80
2022/01/20 10:59:21;;;;;;;15.78;7.03;;;;;;;2.13;66.67;95804.91;1666321;85;20966;-80
2022/01/20 11:02:06;;;;;;;6.47;3.77;;;;;;;2.13;66.61;95793.37;1681531;85;21044;-80
2022/01/20 11:04:32;;;;;;;7.37;4.55;;;;;;;2.13;66.54;95808.75;1681603;85;22239;-80
2022/01/20 11:07:02;;;;;;;8.35;3.20;;;;;;;2.15;65.65;95790.66;1681562;85;20942;-80
2022/01/20 11:09:28;;;;;;;9.45;3.77;;;;;;;2.18;66.20;95791.17;1681664;85;21022;-80
2022/01/20 11:11:55;;;;;;;7.45;4.05;;;;;;;2.19;66.46;95783.81;1681676;85;21356;-80
2022/01/20 11:14:21;;;;;;;6.97;3.92;;;;;;;2.18;65.73;95773.23;1661803;85;20981;-80
2022/01/20 11:16:47;;;;;;;4.25;2.25;;;;;;;2.17;66.06;95788.75;1683678;82;20953;-80
2022/01/20 11:19:18;;;;;;;6.50;2.60;;;;;;;2.08;67.34;95773.75;1697965;84;21326;-80
2022/01/20 11:21:45;;;;;;;5.92;2.65;;;;;;;1.97;68.51;95775.25;1681547;85;21057;-80
2022/01/20 11:24:21;;;;;;;10.05;5.80;;;;;;;1.85;68.76;95772.55;1682867;85;21481;-80
2022/01/20 11:26:55;;;;;;;5.67;3.42;;;;;;;1.75;69.86;95773.86;1670514;85;21000;-80
2022/01/20 11:29:23;;;;;;;2.77;1.65;;;;;;;1.66;70.43;95762.73;1669085;86;22205;-80
2022/01/20 11:31:49;;;;;;;5.30;2.30;;;;;;;1.55;70.75;95778.27;1668795;86;21233;-80
2022/01/20 11:34:17;;;;;;;2.87;1.60;;;;;;;1.42;71.12;95864.33;1648158;86;21335;-79
2022/01/20 11:36:43;;;;;;;5.33;2.17;;;;;;;1.23;77.25;95975.70;1669097;85;21107;-79
2022/01/20 11:39:09;;;;;;;3.08;2.27;;;;;;;0.84;76.96;95982.05;1669166;85;21414;-80
2022/01/20 11:41:46;;;;;;;5.45;2.15;;;;;;;0.44;77.97;95985.89;1669697;85;21107;-80
2022/01/20 11:44:18;;;;;;;3.05;2.08;;;;;;;0.17;78.56;96007.37;1669061;86;21091;-80
2022/01/20 11:46:47;;;;;;;4.30;2.22;;;;;;;-0.13;78.85;95980.86;1669082;86;21086;-80
2022/01/20 11:49:15;;;;;;;3.05;1.77;;;;;;;-0.40;80.45;95990.75;1669164;85;21442;-80
2022/01/20 11:51:57;;;;;;;3.27;2.30;;;;;;;-0.62;79.61;95978.92;1669350;85;21395;-79
2022/01/20 11:54:41;;;;;;;2.85;2.20;;;;;;;-0.79;79.41;95976.44;1669609;85;21027;-79
2022/01/20 11:57:14;;;;;;;2.65;2.20;;;;;;;-0.86;79.78;95971.45;1669122;85;20992;-79
2022/01/20 11:59:51;;;;;;;5.17;2.83;;;;;;;-0.95;80.56;95976.83;1669455;85;21406;-79
2022/01/20 12:02:38;;;;;;;4.80;2.98;;;;;;;-1.03;80.35;95970.70;1669819;85;21057;-79
2022/01/20 12:05:26;;;;;;;5.03;2.90;;;;;;;-1.06;80.28;95964.11;1648304;86;21011;-79
2022/01/20 12:07:50;;;;;;;5.78;3.70;;;;;;;-1.06;80.39;95953.91;1668237;86;21030;-79
2022/01/20 12:10:19;;;;;;;9.68;6.75;;;;;;;-1.03;80.21;95961.31;1668953;85;21022;-79
2022/01/20 12:12:45;;;;;;;8.13;5.62;;;;;;;-0.98;80.30;95951.58;1668607;86;21052;-79
2022/01/20 12:15:17;;;;;;;7.70;5.08;;;;;;;-0.92;80.45;95946.45;1670936;85;21450;-79
2022/01/20 12:17:55;;;;;;;6.03;4.40;;;;;;;-0.90;80.53;95939.48;1672079;83;21027;-80
2022/01/20 12:20:22;;;;;;;7.80;4.65;;;;;;;-0.88;80.55;95947.00;1696631;83;21039;-80
2022/01/20 12:22:49;;;;;;;7.15;4.75;;;;;;;-0.89;80.41;95956.87;1699684;83;21429;-80
2022/01/20 12:25:21;;;;;;;6.35;4.25;;;;;;;-0.90;80.25;95956.06;1689519;84;20982;-80
2022/01/20 12:27:47;;;;;;;6.85;4.08;;;;;;;-0.90;80.44;95975.19;1709969;84;21027;-79
2022/01/20 12:30:24;;;;;;;5.90;4.08;;;;;;;-0.95;81.24;95993.41;1709877;83;21053;-79
2022/01/20 12:33:06;;;;;;;7.83;5.58;;;;;;;-1.03;80.81;95975.80;1690966;84;21018;-80
2022/01/20 12:35:42;;;;;;;6.10;4.28;;;;;;;-1.10;80.44;95979.77;1709975;84;21023;-80
2022/01/20 12:38:28;;;;;;;20.08;9.45;;;;;;;-1.14;80.54;95982.20;1709668;83;21009;-80
2022/01/20 12:41:14;;;;;;;9.25;5.65;;;;;;;-1.20;80.44;95968.20;1684414;84;20994;-79
2022/01/20 12:43:45;;;;;;;12.73;6.90;;;;;;;-1.24;80.29;95963.81;1681153;85;21301;-79
2022/01/20 12:46:18;;;;;;;11.38;6.60;;;;;;;-1.19;80.32;95961.36;1681370;85;21009;-79
2022/01/20 12:49:14;;;;;;;10.98;5.90;;;;;;;-1.11;80.13;95959.03;1681392;85;20985;-80
2022/01/20 12:51:48;;;;;;;11.08;5.47;;;;;;;-1.09;79.39;95978.38;1681249;85;20970;-80
2022/01/20 12:54:26;;;;;;;10.00;5.37;;;;;;;-1.00;79.42;95992.13;1681292;85;20981;-80
2022/01/20 12:56:49;;;;;;;12.03;6.05;;;;;;;-0.99;78.59;95989.92;1680485;85;20973;-80